Аэропорт: Стригино. Нижний Новгород

ICAO: UWGG

METAR:
2018/05/20 23:00
UWGG 202300Z 31001MPS 6000 MIFG NSC 04/03 Q1024 R36L/090070 NOSIG
METAR:
2018/05/20 21:21
TAF UWGG 201958Z 2021/2121 36003MPS 4000 BR SCT015 TX18/2112Z TN03/2100Z